Time;durP1;ratioP1;P1;durP2;ratioP2;P2;SDS_P1;SDS_P2;PMS_P1;PMS_P2;Temp;Humidity;BMP_temperature;BMP_pressure;BME280_temperature;BME280_humidity;BME280_pressure;Samples;Min_cycle;Max_cycle;Signal;HPM_P1;HPM_P2
2023/03/24 00:01:04;;;;;;;12.10;6.18;;;;;;;15.73;50.50;101204.38;6174546;23;20017;-85
2023/03/24 00:03:32;;;;;;;10.50;5.50;;;;;;;14.67;50.56;101031.25;6154622;23;20115;-84
2023/03/24 00:06:12;;;;;;;13.73;6.18;;;;;;;15.79;50.94;101215.28;6136036;23;20029;-84
2023/03/24 00:08:48;;;;;;;12.05;5.88;;;;;;;15.77;50.67;101211.06;6141990;23;20052;-85
2023/03/24 00:11:18;;;;;;;7.45;5.60;;;;;;;14.72;51.01;101047.66;6143416;23;20052;-84
2023/03/24 00:13:49;;;;;;;9.52;6.38;;;;;;;15.48;51.31;101193.41;6155162;23;20273;-82
2023/03/24 00:16:20;;;;;;;8.10;5.95;;;;;;;15.31;51.64;101162.16;6145706;23;20017;-86
2023/03/24 00:18:51;;;;;;;10.43;5.80;;;;;;;15.65;51.92;101217.63;6140420;23;20025;-81
2023/03/24 00:21:23;;;;;;;10.88;6.38;;;;;;;15.58;52.26;101215.59;6155526;23;20298;-84
2023/03/24 00:24:39;;;;;;;16.42;6.55;;;;;;;14.63;52.92;101061.91;6144602;23;20411;-85
2023/03/24 00:27:17;;;;;;;11.30;6.40;;;;;;;15.41;52.75;101204.88;6146666;23;20484;-84
2023/03/24 00:29:50;;;;;;;12.50;6.68;;;;;;;15.47;52.77;101215.81;6158530;23;20021;-85
2023/03/24 00:32:16;;;;;;;13.93;5.93;;;;;;;14.57;52.08;101049.19;6181791;23;20020;-83
2023/03/24 00:34:43;;;;;;;9.85;5.75;;;;;;;15.03;52.32;101132.81;6186299;23;20029;-84
2023/03/24 00:37:10;;;;;;;8.73;6.00;;;;;;;15.11;52.04;101140.09;6184643;23;20063;-84
2023/03/24 00:39:53;;;;;;;8.00;5.83;;;;;;;15.57;52.05;101215.72;6155107;23;20028;-83
2023/03/24 00:42:21;;;;;;;7.75;5.30;;;;;;;15.57;52.35;101218.41;6150172;23;20096;-84
2023/03/24 00:44:48;;;;;;;8.73;5.95;;;;;;;14.99;52.15;101136.78;6153543;23;20499;-85
2023/03/24 00:47:24;;;;;;;7.03;6.32;;;;;;;14.88;52.04;101115.63;6186964;23;20021;-84
2023/03/24 00:50:00;;;;;;;8.35;6.22;;;;;;;15.53;52.37;101225.06;6181516;23;20020;-85
2023/03/24 00:52:36;;;;;;;10.32;6.35;;;;;;;15.37;52.50;101190.97;6159173;23;20091;-85
2023/03/24 00:55:05;;;;;;;8.50;5.63;;;;;;;15.14;52.97;101159.31;6185570;23;20032;-86
2023/03/24 00:57:39;;;;;;;13.55;6.20;;;;;;;14.92;52.79;101141.06;6158257;23;20235;-84
2023/03/24 01:00:15;;;;;;;12.15;6.70;;;;;;;14.88;52.90;101137.88;6150732;23;20321;-84
2023/03/24 01:02:56;;;;;;;9.63;7.00;;;;;;;14.18;53.61;101041.38;6169530;23;20025;-84
2023/03/24 01:05:41;;;;;;;10.07;5.93;;;;;;;14.67;54.21;101124.78;6100690;23;20025;-85
2023/03/24 01:08:20;;;;;;;10.90;6.50;;;;;;;14.21;53.98;101050.94;6155562;23;20043;-84
2023/03/24 01:10:54;;;;;;;8.73;6.40;;;;;;;14.37;54.37;101098.34;6135101;23;20306;-85
2023/03/24 01:13:33;;;;;;;11.98;6.95;;;;;;;14.43;54.74;101103.09;6166423;23;20526;-81
2023/03/24 01:15:59;;;;;;;12.02;7.65;;;;;;;13.86;54.58;101005.31;6157976;23;20032;-85
2023/03/24 01:18:55;;;;;;;9.07;7.15;;;;;;;15.09;54.64;101196.38;6157645;23;20025;-84
2023/03/24 01:21:25;;;;;;;10.90;6.82;;;;;;;15.16;53.78;101197.44;6151292;23;20345;-85
2023/03/24 01:24:03;;;;;;;9.68;6.88;;;;;;;15.00;54.00;101170.56;6167519;23;20028;-84
2023/03/24 01:26:44;;;;;;;10.98;7.13;;;;;;;15.16;53.83;101199.28;6143432;23;20021;-81
2023/03/24 01:29:25;;;;;;;12.77;7.28;;;;;;;15.09;54.40;101191.03;6150148;23;20029;-84
2023/03/24 01:31:53;;;;;;;9.88;6.30;;;;;;;13.80;54.26;100979.19;6157084;23;20025;-86
2023/03/24 01:34:19;;;;;;;7.82;6.20;;;;;;;14.87;54.07;101148.69;6155484;23;20025;-83
2023/03/24 01:36:46;;;;;;;7.95;5.35;;;;;;;15.22;53.44;101188.00;6185460;23;20021;-84
2023/03/24 01:39:13;;;;;;;11.13;5.72;;;;;;;15.28;53.58;101194.56;6149396;23;20465;-83
2023/03/24 01:42:04;;;;;;;7.80;5.93;;;;;;;15.09;53.68;101169.63;6123905;23;20548;-82
2023/03/24 01:44:42;;;;;;;7.97;5.38;;;;;;;15.01;54.17;101168.72;6160959;23;20672;-82
2023/03/24 01:47:08;;;;;;;11.70;5.78;;;;;;;15.01;53.75;101150.84;6160158;23;20112;-83
2023/03/24 01:49:51;;;;;;;6.75;5.93;;;;;;;15.14;54.07;101183.38;6156552;23;20013;-85
2023/03/24 01:52:28;;;;;;;7.65;5.40;;;;;;;15.13;53.84;101152.31;6143667;23;20108;-85
2023/03/24 01:55:01;;;;;;;10.00;5.22;;;;;;;14.98;53.66;101124.44;6160401;23;20484;-83
2023/03/24 01:57:32;;;;;;;10.60;5.50;;;;;;;15.14;54.14;101172.69;6159968;23;20659;-84
2023/03/24 02:00:07;;;;;;;8.73;6.05;;;;;;;14.95;54.43;101146.97;6155071;23;20385;-81
2023/03/24 02:02:35;;;;;;;8.32;6.28;;;;;;;15.06;54.50;101177.13;6158718;23;20021;-84
2023/03/24 02:05:13;;;;;;;6.88;5.03;;;;;;;14.97;54.47;101157.47;6146803;23;20273;-84
2023/03/24 02:08:11;;;;;;;9.57;5.97;;;;;;;14.99;55.37;101182.25;6158119;23;20017;-83
2023/03/24 02:10:41;;;;;;;9.07;5.75;;;;;;;14.96;55.08;101170.00;6138403;23;20021;-85
2023/03/24 02:13:13;;;;;;;11.63;5.88;;;;;;;14.96;54.82;101172.69;6139215;23;20025;-82
2023/03/24 02:15:53;;;;;;;12.85;6.43;;;;;;;14.64;54.98;101121.56;6160264;23;20025;-86
2023/03/24 02:18:53;;;;;;;6.47;5.88;;;;;;;14.89;54.65;101162.75;6149771;23;20029;-85
2023/03/24 02:21:44;;;;;;;9.13;6.38;;;;;;;14.98;54.91;101177.03;6133108;23;20495;-82
2023/03/24 02:24:15;;;;;;;9.67;6.50;;;;;;;14.54;55.17;101118.97;6158297;23;20028;-86
2023/03/24 02:26:59;;;;;;;6.93;5.85;;;;;;;14.71;55.39;101152.06;6142390;23;20097;-84
2023/03/24 02:29:34;;;;;;;9.50;6.20;;;;;;;14.98;54.91;101177.91;6160522;23;20060;-83
2023/03/24 02:32:42;;;;;;;8.48;5.70;;;;;;;14.91;55.45;101171.47;6146528;23;20025;-84
2023/03/24 02:35:28;;;;;;;8.60;6.35;;;;;;;14.77;54.84;101158.63;6139232;23;20392;-83
2023/03/24 02:38:33;;;;;;;7.88;5.45;;;;;;;14.86;55.43;101173.75;6139061;23;20098;-82
2023/03/24 02:41:14;;;;;;;9.05;6.28;;;;;;;13.52;55.48;100956.16;6149054;23;20389;-85
2023/03/24 02:44:08;;;;;;;10.77;6.05;;;;;;;14.82;55.43;101167.03;6181577;23;20437;-83
2023/03/24 02:46:49;;;;;;;8.10;6.07;;;;;;;14.77;55.47;101150.59;6154609;23;20349;-84
2023/03/24 02:49:42;;;;;;;9.25;6.32;;;;;;;14.85;55.49;101156.03;6158711;23;20517;-84
2023/03/24 02:52:50;;;;;;;7.53;6.38;;;;;;;14.54;55.65;101108.28;6149822;23;20024;-84
2023/03/24 02:55:31;;;;;;;7.78;5.72;;;;;;;14.66;55.65;101146.28;6151463;23;20244;-85
2023/03/24 02:58:10;;;;;;;6.05;5.43;;;;;;;14.66;56.19;101149.81;6153283;23;20353;-83
2023/03/24 03:00:50;;;;;;;8.98;5.50;;;;;;;14.31;56.76;101105.94;6184772;23;20013;-83
2023/03/24 03:03:26;;;;;;;9.45;5.95;;;;;;;14.52;56.85;101156.47;6156485;23;20028;-85
2023/03/24 03:06:12;;;;;;;8.93;6.22;;;;;;;14.57;56.30;101145.38;6149432;23;20024;-85
2023/03/24 03:08:40;;;;;;;9.20;6.15;;;;;;;14.56;56.72;101153.53;6134476;23;20100;-83
2023/03/24 03:11:15;;;;;;;13.20;6.05;;;;;;;14.38;56.90;101148.94;6154376;23;20017;-86
2023/03/24 03:13:50;;;;;;;9.00;5.90;;;;;;;13.94;57.67;101084.63;6150003;23;20021;-86
2023/03/24 03:16:37;;;;;;;8.32;5.70;;;;;;;14.11;57.35;101117.72;6162568;23;20059;-86
2023/03/24 03:19:30;;;;;;;7.88;5.72;;;;;;;14.27;57.28;101128.63;6150075;23;20385;-83
2023/03/24 03:21:59;;;;;;;9.55;6.95;;;;;;;14.33;57.45;101140.53;6155552;23;20229;-82
2023/03/24 03:24:32;;;;;;;15.45;7.53;;;;;;;13.25;57.54;100968.44;6134330;23;20472;-83
2023/03/24 03:27:07;;;;;;;11.93;6.85;;;;;;;14.02;57.64;101108.75;6151677;23;20048;-84
2023/03/24 03:29:39;;;;;;;8.93;6.60;;;;;;;14.30;57.55;101157.69;6159042;23;20021;-85
2023/03/24 03:32:11;;;;;;;8.57;6.32;;;;;;;13.85;57.35;101073.00;6149819;23;20032;-83
2023/03/24 03:34:41;;;;;;;9.30;6.43;;;;;;;14.35;56.95;101154.59;6156342;23;20091;-85
2023/03/24 03:37:42;;;;;;;10.35;6.53;;;;;;;14.31;57.54;101148.69;6155255;23;20041;-86
2023/03/24 03:40:54;;;;;;;12.55;6.38;;;;;;;13.35;57.81;100995.97;6193219;23;20013;-84
2023/03/24 03:43:22;;;;;;;8.52;6.57;;;;;;;14.20;57.79;101130.19;6163563;23;20386;-83
2023/03/24 03:45:59;;;;;;;9.90;6.82;;;;;;;14.35;57.54;101153.75;6178366;23;20053;-82
2023/03/24 03:48:30;;;;;;;12.20;6.72;;;;;;;14.28;57.46;101135.63;6146727;23;20575;-83
2023/03/24 03:51:00;;;;;;;7.80;6.65;;;;;;;13.92;56.96;101057.25;6142400;23;20017;-84
2023/03/24 03:53:55;;;;;;;11.95;7.25;;;;;;;14.51;56.95;101148.59;6167526;23;20021;-85
2023/03/24 03:56:34;;;;;;;7.38;6.40;;;;;;;14.55;57.20;101155.34;6150911;23;20021;-84
2023/03/24 03:59:21;;;;;;;7.95;6.97;;;;;;;14.49;56.64;101129.19;6149718;23;20466;-84
2023/03/24 04:01:51;;;;;;;13.10;6.47;;;;;;;14.63;56.62;101143.91;6157447;23;20048;-83
2023/03/24 04:04:36;;;;;;;9.02;6.82;;;;;;;14.72;56.50;101146.53;6154239;23;20017;-82
2023/03/24 04:07:35;;;;;;;9.80;6.68;;;;;;;14.69;56.65;101151.34;6154334;23;20037;-84
2023/03/24 04:10:05;;;;;;;9.23;7.20;;;;;;;14.68;56.49;101150.50;6134572;23;20017;-86
2023/03/24 04:12:49;;;;;;;9.23;6.72;;;;;;;14.42;57.40;101106.75;6160146;23;20349;-85
2023/03/24 04:15:44;;;;;;;11.38;6.88;;;;;;;14.33;57.10;101093.28;6145990;23;20561;-84
2023/03/24 04:18:59;;;;;;;10.80;7.10;;;;;;;14.51;57.15;101128.09;6154671;23;20108;-84
2023/03/24 04:22:14;;;;;;;9.75;6.65;;;;;;;14.65;57.00;101145.44;6141350;23;20025;-83
2023/03/24 04:24:54;;;;;;;10.25;7.10;;;;;;;14.56;56.86;101124.97;6100331;23;20080;-86
2023/03/24 04:28:17;;;;;;;10.77;7.07;;;;;;;14.42;56.77;101085.41;6156372;23;20021;-83
2023/03/24 04:30:54;;;;;;;8.50;6.65;;;;;;;14.68;56.77;101126.44;6122051;23;20028;-86
2023/03/24 04:33:29;;;;;;;8.23;6.85;;;;;;;14.65;56.20;101113.38;6151746;23;20029;-82
2023/03/24 04:36:17;;;;;;;10.73;6.93;;;;;;;14.67;57.34;101127.44;6171046;23;20028;-85
2023/03/24 04:38:52;;;;;;;7.97;6.68;;;;;;;14.54;57.08;101121.63;6173921;23;20359;-84
2023/03/24 04:41:24;;;;;;;7.43;6.60;;;;;;;13.93;57.18;101031.38;6157209;23;20298;-85
2023/03/24 04:43:57;;;;;;;11.57;7.15;;;;;;;14.29;57.42;101089.22;6159913;23;20356;-83
2023/03/24 04:46:24;;;;;;;7.00;6.38;;;;;;;14.50;57.07;101120.22;6161249;23;20036;-85
2023/03/24 04:49:01;;;;;;;7.68;6.35;;;;;;;14.58;57.64;101131.00;6168425;23;20392;-85
2023/03/24 04:51:31;;;;;;;10.18;6.50;;;;;;;14.46;57.81;101121.47;6159857;23;20801;-85
2023/03/24 04:54:01;;;;;;;7.95;6.80;;;;;;;14.43;57.83;101124.47;6175636;23;20492;-84
2023/03/24 04:56:46;;;;;;;10.80;6.88;;;;;;;14.27;58.04;101093.03;6151514;23;20073;-83
2023/03/24 04:59:14;;;;;;;13.85;7.53;;;;;;;14.48;57.45;101127.53;6149860;23;20107;-83
2023/03/24 05:01:50;;;;;;;14.87;7.27;;;;;;;14.59;57.86;101142.53;6177667;23;20025;-85
2023/03/24 05:04:19;;;;;;;7.43;6.68;;;;;;;14.52;58.24;101135.09;6159654;23;20290;-85
2023/03/24 05:06:46;;;;;;;10.40;7.07;;;;;;;14.13;58.58;101074.84;6154432;23;20176;-84
2023/03/24 05:09:20;;;;;;;11.25;7.20;;;;;;;14.41;58.03;101127.28;6158641;23;20104;-83
2023/03/24 05:11:50;;;;;;;8.38;6.63;;;;;;;14.32;58.02;101102.31;6168377;23;20487;-84
2023/03/24 05:14:17;;;;;;;10.25;7.15;;;;;;;14.31;58.39;101113.97;6161831;23;20033;-85
2023/03/24 05:16:50;;;;;;;8.55;6.30;;;;;;;14.48;58.47;101140.88;6153064;23;20025;-85
2023/03/24 05:19:17;;;;;;;7.80;6.38;;;;;;;14.47;58.47;101141.88;6157800;23;20024;-86
2023/03/24 05:21:47;;;;;;;9.70;6.97;;;;;;;13.27;58.27;100934.50;6144616;23;20028;-86
2023/03/24 05:24:14;;;;;;;7.65;6.85;;;;;;;14.57;57.91;101136.53;6155580;23;20521;-83
2023/03/24 05:26:41;;;;;;;10.70;6.60;;;;;;;14.63;57.98;101135.91;6194239;23;20028;-80
2023/03/24 05:29:08;;;;;;;8.48;7.28;;;;;;;13.99;57.65;101028.13;6163314;23;20257;-82
2023/03/24 05:31:40;;;;;;;10.75;7.72;;;;;;;13.65;57.92;100964.69;6169474;23;20021;-82
2023/03/24 05:34:07;;;;;;;22.48;9.00;;;;;;;14.71;57.51;101126.16;6168023;23;20044;-83
2023/03/24 05:36:37;;;;;;;9.57;7.32;;;;;;;14.73;57.76;101137.53;6159203;23;20092;-81
2023/03/24 05:39:06;;;;;;;10.57;7.30;;;;;;;14.31;57.78;101063.22;6165532;23;20095;-81
2023/03/24 05:41:41;;;;;;;12.32;7.32;;;;;;;14.26;57.47;101044.13;6186701;23;20017;-81
2023/03/24 05:44:19;;;;;;;8.02;6.68;;;;;;;14.80;57.77;101126.22;6143363;23;20029;-82
2023/03/24 05:46:51;;;;;;;11.88;8.02;;;;;;;14.60;57.53;101093.47;6149976;23;20218;-84
2023/03/24 05:49:33;;;;;;;11.32;6.53;;;;;;;13.57;58.05;100941.41;6157974;23;20401;-85
2023/03/24 05:52:00;;;;;;;;;;;;;;;14.83;57.95;101141.97;6159391;23;20349;-83
2023/03/24 05:54:27;;;;;;;8.52;7.22;;;;;;;14.35;57.84;101076.28;6143032;23;19916;-84
2023/03/24 05:56:55;;;;;;;8.07;7.13;;;;;;;14.43;57.27;101068.38;6153408;23;20028;-83
2023/03/24 05:59:27;;;;;;;13.65;6.28;;;;;;;14.73;58.15;101132.19;6145245;23;20428;-84
2023/03/24 06:01:58;;;;;;;9.55;7.03;;;;;;;14.70;58.26;101137.81;6160080;23;20060;-85
2023/03/24 06:04:44;;;;;;;13.40;7.15;;;;;;;13.85;57.99;101000.94;6116714;23;20281;-85
2023/03/24 06:07:13;;;;;;;16.45;7.85;;;;;;;14.38;58.08;101089.34;6119507;23;20388;-84
2023/03/24 06:09:41;;;;;;;13.95;8.02;;;;;;;13.75;58.37;100984.13;6135094;23;20031;-85
2023/03/24 06:12:10;;;;;;;9.18;7.28;;;;;;;14.32;58.62;101075.59;6131550;23;20429;-84
2023/03/24 06:14:44;;;;;;;10.52;7.60;;;;;;;13.94;58.70;101007.22;6131557;23;20091;-85
2023/03/24 06:17:16;;;;;;;11.55;7.35;;;;;;;14.85;58.70;101166.72;6133311;23;20028;-83
2023/03/24 06:19:48;;;;;;;9.45;7.80;;;;;;;13.99;57.95;101006.78;6159238;23;20031;-85
2023/03/24 06:22:21;;;;;;;12.77;7.22;;;;;;;15.03;58.04;101169.44;6159371;23;20029;-85
2023/03/24 06:24:52;;;;;;;8.63;7.25;;;;;;;14.57;58.53;101113.31;6157222;23;20687;-85
2023/03/24 06:27:24;;;;;;;7.57;6.50;;;;;;;14.96;58.00;101155.81;6144865;23;20028;-84
2023/03/24 06:29:57;;;;;;;9.88;6.75;;;;;;;14.44;58.56;101081.59;6091030;23;20310;-83
2023/03/24 06:32:25;;;;;;;8.68;7.10;;;;;;;14.80;58.74;101142.28;6154639;23;20032;-85
2023/03/24 06:34:58;;;;;;;10.32;6.60;;;;;;;13.68;57.87;100959.88;6137860;23;20079;-82
2023/03/24 06:37:27;;;;;;;10.82;7.75;;;;;;;14.21;58.28;101035.75;6164206;23;20021;-84
2023/03/24 06:39:55;;;;;;;10.20;6.88;;;;;;;14.65;57.87;101097.34;6121218;23;20016;-82
2023/03/24 06:42:21;;;;;;;12.35;6.72;;;;;;;15.04;58.41;101174.59;6158155;23;20024;-84
2023/03/24 06:44:52;;;;;;;8.82;6.68;;;;;;;14.32;58.19;101062.25;6124531;23;20104;-85
2023/03/24 06:47:19;;;;;;;10.73;6.50;;;;;;;15.12;57.97;101172.03;6125291;23;20025;-85
2023/03/24 06:52:36;;;;;;;9.85;6.15;;;;;;;15.22;57.80;101179.13;6160104;23;20214;-80
2023/03/24 06:55:03;;;;;;;11.07;6.43;;;;;;;15.22;57.78;101179.13;6145753;23;20025;-82
2023/03/24 06:57:36;;;;;;;14.93;7.30;;;;;;;15.21;58.02;101166.75;6129266;23;20215;-82
2023/03/24 07:00:18;;;;;;;7.70;6.00;;;;;;;15.21;56.75;101131.97;6134481;23;20080;-82
2023/03/24 07:02:54;;;;;;;6.97;6.05;;;;;;;15.40;57.53;101182.63;6125157;23;20080;-83
2023/03/24 07:05:21;;;;;;;8.05;6.35;;;;;;;15.15;57.62;101141.47;6134632;23;20126;-84
2023/03/24 07:07:55;;;;;;;9.15;6.20;;;;;;;15.43;57.76;101174.28;6157353;23;20099;-82
2023/03/24 07:10:27;;;;;;;12.40;6.15;;;;;;;15.44;57.04;101151.91;6154702;23;20445;-83
2023/03/24 07:12:54;;;;;;;13.25;6.15;;;;;;;15.56;57.26;101171.25;6172436;23;20052;-83
2023/03/24 07:15:32;;;;;;;10.38;5.78;;;;;;;15.45;57.11;101142.88;6144887;23;20033;-84
2023/03/24 07:17:59;;;;;;;8.65;6.47;;;;;;;15.05;56.90;101073.84;6160659;23;20500;-81
2023/03/24 07:20:31;;;;;;;8.38;6.13;;;;;;;15.62;56.88;101164.41;6161409;23;20449;-81
2023/03/24 07:22:58;;;;;;;7.38;5.78;;;;;;;14.97;56.83;101061.25;6188253;23;20021;-81
2023/03/24 07:25:30;;;;;;;12.25;5.93;;;;;;;15.76;56.99;101179.94;6155520;23;20132;-82
2023/03/24 07:28:00;;;;;;;8.10;6.05;;;;;;;14.99;56.48;101051.22;6151840;23;20033;-81
2023/03/24 07:30:27;;;;;;;8.45;6.15;;;;;;;14.84;56.19;101012.69;6143316;23;20045;-83
2023/03/24 07:33:23;;;;;;;9.20;6.05;;;;;;;14.62;56.48;100965.91;6150398;23;20021;-82
2023/03/24 07:35:56;;;;;;;11.55;6.13;;;;;;;15.95;56.14;101165.53;6183665;23;20091;-83
2023/03/24 07:38:24;;;;;;;9.20;5.85;;;;;;;16.18;55.42;101189.91;6161232;23;20075;-84
2023/03/24 07:41:00;;;;;;;13.45;6.43;;;;;;;16.12;55.76;101172.66;6167596;23;20453;-84
2023/03/24 07:43:40;;;;;;;9.63;5.80;;;;;;;16.21;55.37;101177.06;6157854;23;20031;-83
2023/03/24 07:46:25;;;;;;;18.77;7.20;;;;;;;16.08;55.82;101154.38;6153451;23;20025;-84
2023/03/24 07:49:11;;;;;;;7.65;5.43;;;;;;;16.44;55.20;101171.97;6151756;23;20017;-83
2023/03/24 07:51:45;;;;;;;8.98;5.45;;;;;;;16.49;54.86;101162.63;6186554;23;20047;-83
2023/03/24 07:54:12;;;;;;;10.52;6.13;;;;;;;16.23;55.09;101126.00;6143372;23;20299;-82
2023/03/24 07:57:01;;;;;;;6.88;5.95;;;;;;;16.49;54.86;101160.78;6163738;23;20111;-82
2023/03/24 07:59:28;;;;;;;12.88;5.65;;;;;;;16.35;54.89;101137.25;6176859;23;20028;-83
2023/03/24 08:01:59;;;;;;;13.07;5.35;;;;;;;16.71;54.40;101161.19;6148487;23;20032;-81
2023/03/24 08:04:27;;;;;;;10.05;5.47;;;;;;;16.69;53.83;101136.38;6131191;23;20017;-83
2023/03/24 08:07:00;;;;;;;5.70;4.80;;;;;;;16.83;53.96;101166.09;6136110;23;20017;-84
2023/03/24 08:09:26;;;;;;;6.03;5.32;;;;;;;16.73;54.10;101137.75;6154744;23;20017;-83
2023/03/24 08:11:53;;;;;;;10.55;5.80;;;;;;;17.00;53.67;101155.44;6138884;23;20025;-84
2023/03/24 08:14:24;;;;;;;6.88;5.40;;;;;;;16.97;53.54;101158.44;6161618;23;20025;-83
2023/03/24 08:16:54;;;;;;;6.30;5.38;;;;;;;16.48;53.61;101068.00;6116930;23;20052;-83
2023/03/24 08:19:21;;;;;;;6.00;5.10;;;;;;;17.08;53.15;101169.66;6132675;23;20055;-82
2023/03/24 08:21:50;;;;;;;7.85;4.07;;;;;;;17.26;52.62;101172.22;6122718;23;20207;-83
2023/03/24 08:24:18;;;;;;;8.45;5.03;;;;;;;16.81;51.96;101082.31;6149305;23;20021;-82
2023/03/24 08:26:45;;;;;;;6.35;4.53;;;;;;;17.27;52.08;101159.66;6160921;23;20017;-83
2023/03/24 08:29:14;;;;;;;11.10;5.40;;;;;;;17.06;52.11;101133.28;6134176;23;20028;-82
2023/03/24 08:31:44;;;;;;;9.82;4.90;;;;;;;16.80;52.04;101056.50;6155443;23;20432;-83
2023/03/24 08:34:11;;;;;;;6.28;4.20;;;;;;;17.49;51.58;101158.13;6126870;23;20036;-83
2023/03/24 08:36:41;;;;;;;7.80;4.97;;;;;;;16.57;51.84;101009.88;6125530;23;20087;-82
2023/03/24 08:39:08;;;;;;;7.40;4.82;;;;;;;16.99;51.43;101057.19;6162108;23;20021;-81
2023/03/24 08:41:45;;;;;;;4.78;4.38;;;;;;;17.68;51.14;101160.47;6154828;23;20021;-80
2023/03/24 08:44:12;;;;;;;7.00;4.43;;;;;;;17.88;50.53;101157.47;6131757;23;20355;-81
2023/03/24 08:46:42;;;;;;;7.15;4.82;;;;;;;17.79;50.62;101147.69;6145828;23;20100;-80
2023/03/24 08:49:09;;;;;;;7.97;4.25;;;;;;;17.84;50.74;101148.06;6152705;23;20021;-81
2023/03/24 08:51:35;;;;;;;5.32;4.43;;;;;;;17.88;50.42;101141.34;6122673;23;20348;-80
2023/03/24 08:54:06;;;;;;;6.88;4.30;;;;;;;17.95;49.56;101139.66;6126714;23;20820;-79
2023/03/24 08:56:36;;;;;;;11.35;5.00;;;;;;;17.83;49.91;101131.09;6167063;23;20041;-81
2023/03/24 08:59:08;;;;;;;7.20;4.50;;;;;;;17.85;50.02;101128.28;6143686;23;20092;-81
2023/03/24 09:01:42;;;;;;;13.02;5.15;;;;;;;18.03;49.45;101158.44;6132067;23;20021;-79
2023/03/24 09:04:08;;;;;;;8.15;4.50;;;;;;;18.01;49.56;101162.28;6124963;23;20327;-81
2023/03/24 09:06:35;;;;;;;6.05;4.40;;;;;;;17.89;49.86;101134.97;6159768;23;20021;-81
2023/03/24 09:09:03;;;;;;;7.95;4.90;;;;;;;18.14;48.79;101128.50;6149862;23;20380;-81
2023/03/24 09:11:29;;;;;;;6.78;4.97;;;;;;;18.21;49.01;101149.34;6154789;23;20091;-81
2023/03/24 09:13:56;;;;;;;8.73;4.18;;;;;;;18.23;49.16;101141.91;6149091;23;20134;-80
2023/03/24 09:16:23;;;;;;;9.50;5.00;;;;;;;18.01;49.54;101112.13;6126457;23;20021;-81
2023/03/24 09:18:50;;;;;;;8.10;5.50;;;;;;;18.19;49.56;101122.63;6125042;23;20462;-82
2023/03/24 09:21:17;;;;;;;9.55;6.00;;;;;;;18.48;49.77;101151.56;6129437;23;20048;-82
2023/03/24 09:23:43;;;;;;;7.75;5.55;;;;;;;18.54;50.06;101156.25;6127734;23;20028;-80
2023/03/24 09:26:18;;;;;;;7.47;5.22;;;;;;;18.60;49.85;101148.50;6136074;23;20358;-81
2023/03/24 09:28:49;;;;;;;11.70;5.35;;;;;;;18.75;49.12;101141.34;6155445;23;20679;-81
2023/03/24 09:31:21;;;;;;;7.40;5.70;;;;;;;18.82;49.14;101142.34;6158582;23;20104;-81
2023/03/24 09:33:53;;;;;;;11.38;5.68;;;;;;;18.74;49.00;101128.94;6155134;23;20357;-81
2023/03/24 09:36:22;;;;;;;9.65;6.05;;;;;;;18.69;49.48;101120.53;6134917;23;20075;-82
2023/03/24 09:38:59;;;;;;;14.90;6.53;;;;;;;18.90;49.51;101147.66;6121724;23;20017;-81
2023/03/24 09:41:30;;;;;;;9.10;5.80;;;;;;;18.95;48.85;101137.19;6141646;23;20352;-81
2023/03/24 09:44:15;;;;;;;8.68;6.07;;;;;;;18.99;49.62;101148.47;6124430;23;20021;-81
2023/03/24 09:46:49;;;;;;;13.43;7.53;;;;;;;18.95;50.28;101147.13;6150914;23;20303;-81
2023/03/24 09:49:33;;;;;;;16.42;7.70;;;;;;;18.83;50.75;101125.19;6132378;23;20017;-82
2023/03/24 09:52:18;;;;;;;11.30;7.65;;;;;;;18.50;50.84;101076.97;6136568;23;20076;-81
2023/03/24 09:55:01;;;;;;;15.50;7.88;;;;;;;18.86;51.02;101135.59;6139311;23;20021;-81
2023/03/24 09:57:28;;;;;;;13.80;8.15;;;;;;;18.91;51.29;101151.19;6156657;23;20025;-81
2023/03/24 09:59:57;;;;;;;10.80;8.38;;;;;;;18.97;51.36;101151.31;6150351;23;20091;-80
2023/03/24 10:02:30;;;;;;;11.00;8.05;;;;;;;18.94;51.69;101157.06;6121230;23;20080;-82
2023/03/24 10:05:00;;;;;;;10.73;8.10;;;;;;;18.86;51.43;101130.22;6129150;23;20026;-81
2023/03/24 10:08:12;;;;;;;14.90;8.07;;;;;;;18.09;51.59;101003.78;6107376;23;20033;-82
2023/03/24 10:10:55;;;;;;;14.10;8.82;;;;;;;19.04;51.62;101137.16;6130047;23;20109;-80
2023/03/24 10:13:47;;;;;;;13.60;8.32;;;;;;;19.13;51.68;101150.38;6098730;23;20273;-80
2023/03/24 10:16:32;;;;;;;24.63;8.93;;;;;;;19.10;51.26;101150.75;6121342;23;20109;-80
2023/03/24 10:19:23;;;;;;;16.30;9.20;;;;;;;19.05;52.02;101169.25;6103678;23;20382;-81
2023/03/24 10:22:04;;;;;;;10.32;8.00;;;;;;;19.06;51.40;101164.75;6102451;23;20031;-81
2023/03/24 10:24:47;;;;;;;10.83;8.50;;;;;;;19.25;51.14;101164.25;6104617;23;20022;-80
2023/03/24 10:27:23;;;;;;;14.43;9.77;;;;;;;19.43;51.07;101180.94;6134731;23;20525;-81
2023/03/24 10:30:00;;;;;;;12.77;9.07;;;;;;;18.55;51.26;101031.56;6123782;23;20322;-83
2023/03/24 10:32:41;;;;;;;14.65;9.50;;;;;;;19.56;50.73;101174.94;6100607;23;20235;-83
2023/03/24 10:35:23;;;;;;;15.75;10.23;;;;;;;19.70;50.60;101173.31;6112250;23;20023;-83
2023/03/24 10:37:51;;;;;;;12.57;9.30;;;;;;;19.74;50.59;101136.94;6135250;23;20022;-82
2023/03/24 10:40:24;;;;;;;16.88;9.80;;;;;;;19.78;50.20;101127.47;6135398;23;20299;-84
2023/03/24 10:43:02;;;;;;;19.75;10.13;;;;;;;19.72;50.19;101117.44;6129776;23;20068;-84
2023/03/24 10:45:39;;;;;;;17.60;9.50;;;;;;;20.10;49.80;101163.19;6067086;23;20025;-84
2023/03/24 10:48:15;;;;;;;15.68;9.30;;;;;;;19.98;49.77;101105.38;6084529;23;20087;-82
2023/03/24 10:50:52;;;;;;;15.85;10.95;;;;;;;20.53;48.91;101152.53;6061390;23;20336;-84
2023/03/24 10:53:29;;;;;;;16.27;9.52;;;;;;;20.41;48.84;101135.16;6084207;23;20030;-83
2023/03/24 10:56:04;;;;;;;14.85;10.13;;;;;;;20.77;49.04;101158.66;6068122;23;20376;-83
2023/03/24 10:58:40;;;;;;;15.40;10.95;;;;;;;21.01;47.86;101155.59;6090768;23;20343;-82
2023/03/24 11:01:23;;;;;;;17.77;10.45;;;;;;;20.62;47.71;101061.59;6077050;23;20469;-83
2023/03/24 11:04:13;;;;;;;14.73;10.10;;;;;;;20.14;47.64;100956.09;6097914;23;20025;-84
2023/03/24 11:07:11;;;;;;;14.82;10.60;;;;;;;21.10;47.41;101089.66;6113599;23;20496;-83
2023/03/24 11:10:05;;;;;;;14.27;10.68;;;;;;;21.29;47.31;101100.84;6123438;23;20564;-84
2023/03/24 11:12:40;;;;;;;12.95;10.18;;;;;;;21.56;46.94;101134.34;6089852;23;20808;-84
2023/03/24 11:15:16;;;;;;;17.10;11.25;;;;;;;21.74;46.79;101134.66;6070476;23;20021;-83
2023/03/24 11:17:55;;;;;;;13.70;10.43;;;;;;;21.65;46.31;101080.97;6128104;23;20100;-82
2023/03/24 11:20:35;;;;;;;14.88;10.63;;;;;;;21.16;46.34;100981.94;6111011;23;20096;-84
2023/03/24 11:23:18;;;;;;;21.40;11.48;;;;;;;22.29;45.68;101132.13;6093311;23;20319;-83
2023/03/24 11:25:52;;;;;;;20.17;10.90;;;;;;;22.30;45.93;101128.38;6104412;23;20288;-85
2023/03/24 11:28:26;;;;;;;18.35;10.90;;;;;;;21.16;45.70;100936.03;6130432;23;20257;-84
2023/03/24 11:30:55;;;;;;;14.15;10.85;;;;;;;22.44;45.19;101115.75;6130351;23;20111;-84
2023/03/24 11:33:27;;;;;;;13.02;10.15;;;;;;;22.66;45.21;101115.63;6127076;23;20022;-84
2023/03/24 11:36:42;;;;;;;15.88;11.57;;;;;;;22.71;44.10;101103.13;6098090;23;20370;-83
2023/03/24 11:39:16;;;;;;;18.00;10.70;;;;;;;21.80;44.46;100943.91;6107035;23;20025;-84
2023/03/24 11:42:12;;;;;;;16.85;11.55;;;;;;;22.21;44.77;101032.25;6115597;23;20455;-83
2023/03/24 11:44:50;;;;;;;19.92;11.88;;;;;;;22.65;45.70;101098.56;6101825;23;20092;-83
2023/03/24 11:47:31;;;;;;;17.02;10.82;;;;;;;22.68;45.22;101103.53;6107867;23;20119;-84
2023/03/24 11:50:08;;;;;;;15.65;10.80;;;;;;;22.57;44.62;101106.84;6116763;23;20025;-84
2023/03/24 11:52:58;;;;;;;16.40;10.98;;;;;;;22.37;44.96;101052.69;6136184;23;20018;-83
2023/03/24 11:56:04;;;;;;;15.32;10.73;;;;;;;22.96;44.18;101089.00;6128861;23;20025;-83
2023/03/24 11:58:44;;;;;;;20.45;12.20;;;;;;;22.94;44.32;101078.41;6092567;23;20119;-83
2023/03/24 12:01:41;;;;;;;19.85;11.57;;;;;;;22.81;43.60;101043.19;6133499;23;20018;-83
2023/03/24 12:04:38;;;;;;;16.02;10.95;;;;;;;23.17;43.35;101052.81;6126204;23;20049;-84